Time;durP1;ratioP1;P1;durP2;ratioP2;P2;SDS_P1;SDS_P2;PMS_P1;PMS_P2;Temp;Humidity;BMP_temperature;BMP_pressure;BME280_temperature;BME280_humidity;BME280_pressure;Samples;Min_cycle;Max_cycle;Signal;HPM_P1;HPM_P2
2021/12/02 00:00:21;;;;;;;1.20;0.82;;;19.40;53.10;;;;;;4947031;29;20791;-41
2021/12/02 00:02:47;;;;;;;1.63;1.00;;;19.40;53.10;;;;;;4946659;29;20073;-42
2021/12/02 00:05:13;;;;;;;1.40;1.10;;;19.40;53.10;;;;;;4946928;29;20039;-42
2021/12/02 00:07:40;;;;;;;2.88;1.13;;;19.40;53.10;;;;;;4946519;29;20028;-43
2021/12/02 00:10:06;;;;;;;1.15;0.80;;;19.40;53.10;;;;;;4946657;29;20051;-42
2021/12/02 00:12:33;;;;;;;1.40;0.90;;;19.40;53.00;;;;;;4946267;29;20028;-42
2021/12/02 00:15:05;;;;;;;2.72;1.10;;;19.40;53.00;;;;;;4946819;29;20059;-43
2021/12/02 00:17:36;;;;;;;1.35;1.05;;;19.40;53.00;;;;;;4946740;29;20032;-42
2021/12/02 00:23:01;;;;;;;1.70;1.10;;;19.30;53.00;;;;;;4946251;29;20114;-42
2021/12/02 00:25:27;;;;;;;1.23;0.90;;;19.30;53.00;;;;;;4930542;29;20094;-42
2021/12/02 00:27:54;;;;;;;1.58;0.95;;;19.30;52.90;;;;;;4928518;29;20032;-42
2021/12/02 00:30:20;;;;;;;1.60;1.33;;;19.30;52.90;;;;;;4926027;29;20052;-42
2021/12/02 00:32:46;;;;;;;1.48;1.17;;;19.30;52.90;;;;;;4927412;29;21160;-43
2021/12/02 00:35:12;;;;;;;1.55;1.10;;;19.30;52.90;;;;;;4927027;29;20032;-42
2021/12/02 00:37:39;;;;;;;1.00;0.90;;;19.30;52.90;;;;;;4938079;29;20032;-42
2021/12/02 00:40:05;;;;;;;3.00;1.30;;;19.30;52.90;;;;;;4946231;29;20044;-42
2021/12/02 00:42:33;;;;;;;1.60;1.30;;;19.30;52.90;;;;;;4945645;29;20036;-42
2021/12/02 00:44:59;;;;;;;1.70;1.13;;;19.30;52.80;;;;;;4944442;29;20348;-44
2021/12/02 00:47:25;;;;;;;1.65;1.00;;;19.20;52.80;;;;;;4960859;28;20024;-43
2021/12/02 00:49:51;;;;;;;1.95;1.27;;;19.20;52.80;;;;;;4935482;29;20078;-44
2021/12/02 00:52:18;;;;;;;1.55;1.05;;;19.20;52.80;;;;;;4946074;29;20043;-42
2021/12/02 00:54:44;;;;;;;1.65;1.10;;;19.20;52.80;;;;;;4928631;29;20043;-43
2021/12/02 00:57:11;;;;;;;1.98;1.00;;;19.20;52.80;;;;;;4934801;29;20024;-43
2021/12/02 00:59:37;;;;;;;1.85;1.40;;;19.20;52.80;;;;;;4926801;29;20055;-41
2021/12/02 01:02:03;;;;;;;2.45;1.40;;;19.10;52.80;;;;;;4930520;29;20036;-42
2021/12/02 01:04:30;;;;;;;1.95;1.30;;;19.10;52.80;;;;;;4926553;29;20032;-42
2021/12/02 01:06:56;;;;;;;1.90;1.30;;;19.10;52.80;;;;;;4932679;29;20058;-42
2021/12/02 01:09:22;;;;;;;2.38;1.27;;;19.10;52.80;;;;;;4945632;29;20138;-42
2021/12/02 01:11:49;;;;;;;1.50;1.30;;;19.10;52.80;;;;;;4945740;29;20027;-42
2021/12/02 01:14:15;;;;;;;1.83;1.23;;;19.00;52.80;;;;;;4945331;29;20039;-41
2021/12/02 01:16:41;;;;;;;2.05;1.30;;;19.00;52.80;;;;;;4945841;29;20360;-42
2021/12/02 01:19:08;;;;;;;2.05;1.17;;;19.00;52.80;;;;;;4945588;29;20039;-43
2021/12/02 01:21:36;;;;;;;1.23;1.10;;;19.00;52.90;;;;;;4945564;29;20485;-43
2021/12/02 01:24:04;;;;;;;1.75;1.23;;;19.00;52.80;;;;;;4945253;29;20078;-42
2021/12/02 01:26:31;;;;;;;2.67;1.30;;;19.00;52.80;;;;;;4944729;29;20103;-44
2021/12/02 01:28:57;;;;;;;1.30;1.20;;;19.00;52.80;;;;;;4945496;29;20042;-42
2021/12/02 01:31:26;;;;;;;1.98;1.33;;;19.00;52.90;;;;;;4945551;29;20028;-43
2021/12/02 01:33:52;;;;;;;1.40;1.17;;;18.90;52.80;;;;;;4944226;29;20031;-41
2021/12/02 01:36:18;;;;;;;1.70;1.23;;;18.90;52.80;;;;;;4943892;29;20016;-42
2021/12/02 01:38:45;;;;;;;2.20;1.25;;;18.90;52.90;;;;;;4945369;29;20036;-41
2021/12/02 01:41:11;;;;;;;1.73;1.27;;;18.80;52.80;;;;;;4945328;29;20143;-42
2021/12/02 01:43:40;;;;;;;2.33;1.55;;;18.90;52.90;;;;;;4945095;29;20045;-42
2021/12/02 01:46:06;;;;;;;2.25;1.10;;;18.90;52.90;;;;;;4945312;29;20058;-45
2021/12/02 01:48:33;;;;;;;1.35;1.20;;;18.80;52.90;;;;;;4945285;29;20792;-42
2021/12/02 01:51:04;;;;;;;1.25;1.10;;;18.80;52.90;;;;;;4959358;28;20039;-42
2021/12/02 01:53:32;;;;;;;2.55;1.48;;;18.80;52.90;;;;;;4945424;29;20064;-42
2021/12/02 01:56:10;;;;;;;2.08;1.42;;;18.70;52.90;;;;;;4942595;29;20042;-42
2021/12/02 01:58:56;;;;;;;1.60;1.33;;;18.70;52.90;;;;;;4926233;29;20024;-44
2021/12/02 02:01:24;;;;;;;1.75;1.35;;;18.70;52.90;;;;;;4925966;29;20527;-41
2021/12/02 02:03:51;;;;;;;1.73;1.10;;;18.70;53.50;;;;;;4926075;29;20540;-42
2021/12/02 02:07:04;;;;;;;1.90;1.40;;;18.70;53.00;;;;;;4926649;29;20040;-41
2021/12/02 02:09:32;;;;;;;2.10;1.40;;;18.70;53.00;;;;;;4930866;29;20047;-42
2021/12/02 02:12:02;;;;;;;2.03;1.50;;;18.60;53.00;;;;;;4933609;29;20087;-42
2021/12/02 02:14:29;;;;;;;1.77;1.55;;;18.60;53.00;;;;;;4924723;29;20060;-41
2021/12/02 02:16:56;;;;;;;4.10;1.23;;;18.60;53.00;;;;;;4926038;29;20028;-42
2021/12/02 02:19:23;;;;;;;1.20;1.08;;;18.60;53.00;;;;;;4934782;29;20036;-43
2021/12/02 02:21:49;;;;;;;2.47;1.40;;;18.60;53.00;;;;;;4925654;29;20048;-42
2021/12/02 02:24:17;;;;;;;1.55;1.27;;;18.60;53.00;;;;;;4925953;29;20127;-43
2021/12/02 02:26:43;;;;;;;1.88;1.23;;;18.50;53.00;;;;;;4933618;29;20035;-42
2021/12/02 02:29:12;;;;;;;3.10;1.40;;;18.50;53.00;;;;;;4925910;29;20032;-44
2021/12/02 02:31:39;;;;;;;2.05;1.50;;;18.50;53.10;;;;;;4925763;29;20029;-41
2021/12/02 02:34:05;;;;;;;1.48;1.38;;;18.50;53.10;;;;;;4937793;29;20036;-42
2021/12/02 02:36:34;;;;;;;1.60;1.30;;;18.60;54.00;;;;;;4944840;29;20027;-41
2021/12/02 02:39:02;;;;;;;1.95;1.52;;;18.60;53.80;;;;;;4944918;29;20032;-41
2021/12/02 02:41:53;;;;;;;1.52;1.33;;;18.60;53.60;;;;;;4944637;29;20032;-44
2021/12/02 02:44:19;;;;;;;2.03;1.40;;;18.60;53.70;;;;;;4944453;29;20043;-41
2021/12/02 02:46:46;;;;;;;1.20;1.00;;;18.50;53.60;;;;;;4943300;29;20039;-41
2021/12/02 02:49:12;;;;;;;2.50;1.30;;;18.50;53.50;;;;;;4944869;29;20030;-42
2021/12/02 02:51:39;;;;;;;2.45;1.63;;;18.50;53.60;;;;;;4944804;29;20030;-40
2021/12/02 02:54:08;;;;;;;1.83;1.60;;;18.40;53.50;;;;;;4944667;29;20031;-41
2021/12/02 02:56:39;;;;;;;3.17;1.60;;;18.40;53.50;;;;;;4943873;29;20114;-41
2021/12/02 02:59:12;;;;;;;1.63;1.33;;;18.40;53.50;;;;;;4944844;29;20035;-43
2021/12/02 03:04:26;;;;;;;2.75;1.50;;;18.50;53.90;;;;;;4943583;29;20044;-42
2021/12/02 03:12:17;;;;;;;2.22;1.50;;;18.50;53.90;;;;;;4947950;29;20035;-40
2021/12/02 03:17:10;;;;;;;2.83;1.30;;;18.40;53.90;;;;;;4947784;29;20032;-41
2021/12/02 03:19:43;;;;;;;1.35;1.25;;;18.40;53.90;;;;;;4947894;29;20032;-41
2021/12/02 03:22:10;;;;;;;2.55;1.60;;;18.40;53.90;;;;;;4931129;29;20154;-41
2021/12/02 03:24:37;;;;;;;2.17;1.45;;;18.40;54.00;;;;;;4947653;29;20044;-41
2021/12/02 03:27:04;;;;;;;1.90;1.52;;;18.40;54.10;;;;;;4936445;29;20071;-41
2021/12/02 03:29:30;;;;;;;1.92;1.30;;;18.50;54.00;;;;;;4928767;29;20048;-41
2021/12/02 03:31:57;;;;;;;1.53;1.40;;;18.50;54.00;;;;;;4928622;29;20067;-40
2021/12/02 03:34:23;;;;;;;2.33;1.40;;;18.50;54.00;;;;;;4928624;29;20039;-42
2021/12/02 03:36:49;;;;;;;3.40;1.55;;;18.40;54.10;;;;;;4928443;29;20067;-41
2021/12/02 03:39:16;;;;;;;2.35;1.60;;;18.40;54.10;;;;;;4928602;29;20032;-41
2021/12/02 03:41:42;;;;;;;1.58;1.35;;;18.30;54.00;;;;;;4937803;29;20032;-41
2021/12/02 03:44:08;;;;;;;2.08;1.42;;;18.30;53.90;;;;;;4947040;29;20568;-41
2021/12/02 03:46:34;;;;;;;4.80;1.80;;;18.40;54.20;;;;;;4947328;29;20023;-41
2021/12/02 03:49:00;;;;;;;1.83;1.50;;;18.50;54.40;;;;;;4947104;29;20031;-41
2021/12/02 03:51:27;;;;;;;2.30;1.42;;;18.50;54.30;;;;;;4947270;29;20028;-42
2021/12/02 03:53:53;;;;;;;2.70;1.80;;;18.50;54.20;;;;;;4947445;29;20077;-41
2021/12/02 03:56:19;;;;;;;2.75;1.55;;;18.50;54.20;;;;;;4942796;29;20032;-40
2021/12/02 03:58:46;;;;;;;1.90;1.45;;;18.40;54.70;;;;;;4927976;29;20072;-40
2021/12/02 04:01:13;;;;;;;2.88;1.38;;;18.40;54.20;;;;;;4928242;29;20099;-41
2021/12/02 04:03:39;;;;;;;2.00;1.45;;;18.30;54.10;;;;;;4928064;29;20043;-42
2021/12/02 04:06:06;;;;;;;2.95;1.80;;;18.40;54.20;;;;;;4928194;29;20047;-41
2021/12/02 04:14:06;;;;;;;2.15;1.70;;;18.50;54.40;;;;;;4946815;29;20027;-40
2021/12/02 04:16:36;;;;;;;2.05;1.60;;;18.50;54.30;;;;;;4947036;29;20122;-40
2021/12/02 04:19:03;;;;;;;2.45;1.58;;;18.40;54.20;;;;;;4945712;29;20036;-40
2021/12/02 04:21:29;;;;;;;2.50;1.40;;;18.40;54.20;;;;;;4929516;29;20055;-41
2021/12/02 04:23:56;;;;;;;2.83;1.73;;;18.30;54.20;;;;;;4946810;29;20595;-40
2021/12/02 04:26:22;;;;;;;2.30;1.75;;;18.30;54.20;;;;;;4940847;29;20039;-40
2021/12/02 04:28:49;;;;;;;2.97;2.25;;;18.40;54.30;;;;;;4927223;29;20505;-43
2021/12/02 04:31:15;;;;;;;3.65;2.53;;;18.40;54.50;;;;;;4944226;29;20031;-42
2021/12/02 04:33:41;;;;;;;2.80;1.95;;;18.50;54.40;;;;;;4946458;29;20040;-44
2021/12/02 04:36:09;;;;;;;1.92;1.73;;;18.50;54.40;;;;;;4946384;29;20056;-41
2021/12/02 04:38:35;;;;;;;3.17;1.98;;;18.50;54.30;;;;;;4946076;29;20039;-42
2021/12/02 04:41:01;;;;;;;2.33;2.13;;;18.40;54.30;;;;;;4946331;29;20027;-43
2021/12/02 04:43:27;;;;;;;3.20;2.03;;;18.40;54.30;;;;;;4946031;29;20032;-41
2021/12/02 04:45:53;;;;;;;3.45;2.10;;;18.40;54.30;;;;;;4946242;29;20046;-41
2021/12/02 04:48:20;;;;;;;3.35;2.05;;;18.40;54.30;;;;;;4944883;29;20034;-42
2021/12/02 04:50:46;;;;;;;2.33;1.93;;;18.40;54.60;;;;;;4946272;29;20035;-42
2021/12/02 04:53:12;;;;;;;2.53;2.23;;;18.50;54.50;;;;;;4946193;29;20043;-41
2021/12/02 04:55:39;;;;;;;3.35;2.60;;;18.50;54.40;;;;;;4946131;29;20036;-41
2021/12/02 04:58:05;;;;;;;2.42;1.90;;;18.50;54.40;;;;;;4927267;29;20028;-42
2021/12/02 05:00:31;;;;;;;3.80;2.47;;;18.40;54.40;;;;;;4927035;29;20691;-41
2021/12/02 05:02:58;;;;;;;2.33;2.10;;;18.40;54.40;;;;;;4942769;29;20042;-41
2021/12/02 05:05:24;;;;;;;3.45;2.50;;;18.30;54.30;;;;;;4945919;29;20403;-42
2021/12/02 05:07:53;;;;;;;2.92;2.33;;;18.30;54.30;;;;;;4945974;29;20087;-41
2021/12/02 05:10:19;;;;;;;3.50;2.50;;;18.30;54.40;;;;;;4945912;29;20808;-41
2021/12/02 05:12:45;;;;;;;4.40;2.60;;;18.40;54.50;;;;;;4928260;29;20063;-42
2021/12/02 05:15:11;;;;;;;3.40;2.78;;;18.50;54.60;;;;;;4926576;29;20028;-41
2021/12/02 05:17:37;;;;;;;3.50;2.70;;;18.50;54.50;;;;;;4926824;29;20040;-40
2021/12/02 05:20:07;;;;;;;3.60;2.75;;;18.50;54.50;;;;;;4940679;29;20042;-41
2021/12/02 05:22:33;;;;;;;4.05;2.75;;;18.50;54.40;;;;;;4945456;29;20067;-42
2021/12/02 05:24:59;;;;;;;3.20;2.47;;;18.40;54.40;;;;;;4945564;29;20051;-41
2021/12/02 05:27:25;;;;;;;3.97;3.00;;;18.30;54.40;;;;;;4931649;29;20053;-41
2021/12/02 05:29:51;;;;;;;4.75;3.25;;;18.30;54.40;;;;;;4926071;29;20070;-41
2021/12/02 05:32:17;;;;;;;4.60;3.20;;;18.40;54.60;;;;;;4926700;29;20036;-41
2021/12/02 05:34:47;;;;;;;4.25;2.95;;;18.50;54.70;;;;;;4926405;29;20027;-41
2021/12/02 05:37:13;;;;;;;3.45;2.75;;;18.50;54.50;;;;;;4934353;29;20098;-41
2021/12/02 05:39:39;;;;;;;3.92;3.13;;;18.50;54.50;;;;;;4927986;29;20544;-41
2021/12/02 05:42:06;;;;;;;3.97;3.33;;;18.50;54.50;;;;;;4932899;29;20115;-41
2021/12/02 05:44:32;;;;;;;4.47;2.95;;;18.40;54.50;;;;;;4926078;29;20142;-41
2021/12/02 05:46:58;;;;;;;4.60;3.80;;;18.30;54.50;;;;;;4930676;29;20083;-40
2021/12/02 05:49:24;;;;;;;3.20;2.90;;;18.30;54.50;;;;;;4937940;29;20035;-41
2021/12/02 05:51:50;;;;;;;3.30;2.97;;;18.30;54.50;;;;;;4926471;29;20040;-41
2021/12/02 05:54:16;;;;;;;4.35;3.83;;;18.40;54.60;;;;;;4926341;29;20043;-41
2021/12/02 05:56:42;;;;;;;4.72;3.50;;;18.40;54.70;;;;;;4927328;29;20032;-41
2021/12/02 05:59:09;;;;;;;4.75;3.42;;;18.50;54.60;;;;;;4937816;29;20050;-41
2021/12/02 06:01:37;;;;;;;5.75;4.03;;;18.50;54.60;;;;;;4945243;29;20027;-42
2021/12/02 06:04:03;;;;;;;4.75;3.60;;;18.40;54.50;;;;;;4943831;29;20435;-42
2021/12/02 06:06:29;;;;;;;5.50;3.70;;;18.40;54.60;;;;;;4945180;29;20468;-41
2021/12/02 06:08:55;;;;;;;5.05;3.92;;;18.30;54.50;;;;;;4945159;29;20030;-41
2021/12/02 06:11:22;;;;;;;4.50;3.40;;;18.30;54.90;;;;;;4938147;29;20028;-41
2021/12/02 06:13:48;;;;;;;;;;;18.40;54.60;;;;;;4926480;29;20072;-42
2021/12/02 06:16:15;;;;;;;4.45;3.70;;;18.40;54.70;;;;;;4926021;29;19911;-42
2021/12/02 06:18:41;;;;;;;5.03;4.18;;;18.50;54.60;;;;;;4929367;29;20532;-41
2021/12/02 06:21:08;;;;;;;4.20;3.78;;;18.50;54.60;;;;;;4944537;29;20047;-41
2021/12/02 06:23:36;;;;;;;;;;;18.40;54.60;;;;;;4945430;29;20048;-41
2021/12/02 06:26:02;;;;;;;5.50;4.30;;;18.40;54.60;;;;;;4942012;28;19915;-41
2021/12/02 06:28:28;;;;;;;5.95;4.38;;;18.30;54.50;;;;;;4925861;29;20040;-43
2021/12/02 06:30:54;;;;;;;4.75;3.95;;;18.30;54.60;;;;;;4925630;29;20115;-41
2021/12/02 06:33:20;;;;;;;6.20;4.18;;;18.40;54.70;;;;;;4925861;29;20025;-41
2021/12/02 06:35:46;;;;;;;6.30;4.85;;;18.40;54.70;;;;;;4937814;29;20515;-42
2021/12/02 06:38:12;;;;;;;5.82;4.47;;;18.50;54.70;;;;;;4944683;29;20038;-41
2021/12/02 06:40:40;;;;;;;5.50;4.20;;;18.50;54.70;;;;;;4944104;29;20082;-41
2021/12/02 06:43:06;;;;;;;5.38;4.10;;;18.50;54.70;;;;;;4948432;29;20034;-40
2021/12/02 06:45:32;;;;;;;5.47;4.47;;;18.40;54.70;;;;;;4946816;29;20036;-40
2021/12/02 06:47:59;;;;;;;4.70;4.20;;;18.30;54.60;;;;;;4947969;29;20035;-40
2021/12/02 06:50:26;;;;;;;6.63;4.63;;;18.30;54.70;;;;;;4948272;29;20035;-41
2021/12/02 06:52:52;;;;;;;5.70;4.23;;;18.30;54.70;;;;;;4948523;29;20031;-41
2021/12/02 06:55:19;;;;;;;6.35;4.65;;;18.40;54.80;;;;;;4948169;29;20027;-41
2021/12/02 06:57:45;;;;;;;5.32;4.35;;;18.50;54.90;;;;;;4932416;29;20028;-41
2021/12/02 07:00:13;;;;;;;4.47;4.00;;;18.50;54.80;;;;;;4929841;29;20107;-40
2021/12/02 07:02:39;;;;;;;5.85;4.57;;;18.50;54.80;;;;;;4937533;29;20024;-41
2021/12/02 07:05:06;;;;;;;5.88;4.38;;;18.40;54.70;;;;;;4947993;29;20571;-40
2021/12/02 07:07:36;;;;;;;5.85;4.50;;;18.40;54.80;;;;;;4947906;29;20035;-41
2021/12/02 07:10:09;;;;;;;5.35;4.13;;;18.30;54.70;;;;;;4947999;29;20040;-41
2021/12/02 07:12:38;;;;;;;5.00;4.45;;;18.30;54.70;;;;;;4947681;29;20587;-41
2021/12/02 07:15:09;;;;;;;5.15;4.25;;;18.40;54.80;;;;;;4947833;29;20489;-40
2021/12/02 07:17:35;;;;;;;5.45;4.55;;;18.40;54.90;;;;;;4947773;29;20046;-41
2021/12/02 07:20:01;;;;;;;4.95;4.45;;;18.50;54.80;;;;;;4947812;29;20064;-41
2021/12/02 07:22:28;;;;;;;5.47;4.38;;;18.50;54.80;;;;;;4947305;29;20091;-40
2021/12/02 07:24:54;;;;;;;5.07;3.95;;;18.40;54.70;;;;;;4947646;29;20107;-40
2021/12/02 07:27:20;;;;;;;5.00;4.13;;;18.40;54.80;;;;;;4934414;29;20119;-40
2021/12/02 07:29:47;;;;;;;6.28;4.50;;;18.30;54.70;;;;;;4928483;29;20050;-41
2021/12/02 07:32:14;;;;;;;5.60;4.15;;;18.30;54.80;;;;;;4928447;29;20055;-40
2021/12/02 07:34:44;;;;;;;5.28;4.60;;;18.30;54.70;;;;;;4928567;29;20029;-41
2021/12/02 07:37:19;;;;;;;5.45;4.70;;;18.40;54.90;;;;;;4935959;29;20481;-40
2021/12/02 07:39:45;;;;;;;5.45;4.45;;;18.50;54.80;;;;;;4947602;29;20023;-40
2021/12/02 07:42:11;;;;;;;4.60;4.10;;;18.50;54.80;;;;;;4933818;29;20063;-40
2021/12/02 07:44:38;;;;;;;5.43;4.75;;;18.50;54.70;;;;;;4927976;29;20087;-41
2021/12/02 07:47:04;;;;;;;5.60;4.78;;;18.40;54.80;;;;;;4928321;29;20385;-41
2021/12/02 07:49:31;;;;;;;5.35;4.28;;;18.30;54.70;;;;;;4936341;29;20032;-41
2021/12/02 07:52:00;;;;;;;5.20;4.20;;;18.30;54.80;;;;;;4946960;29;20034;-41
2021/12/02 07:54:26;;;;;;;5.57;4.85;;;18.30;54.80;;;;;;4947379;29;20040;-40
2021/12/02 07:56:53;;;;;;;5.90;4.45;;;18.40;54.90;;;;;;4937690;29;20505;-41
2021/12/02 07:59:20;;;;;;;5.13;4.15;;;18.50;54.80;;;;;;4927985;29;20044;-41
2021/12/02 08:01:46;;;;;;;5.35;4.22;;;18.50;54.80;;;;;;4928590;29;20047;-42
2021/12/02 08:04:12;;;;;;;5.63;4.50;;;18.50;54.80;;;;;;4945937;29;20044;-41
2021/12/02 08:06:39;;;;;;;5.88;4.70;;;18.40;54.80;;;;;;4947027;29;20260;-42
2021/12/02 08:09:06;;;;;;;4.90;4.40;;;18.30;54.70;;;;;;4946920;29;20036;-42
2021/12/02 08:11:33;;;;;;;5.60;4.40;;;18.30;54.80;;;;;;4946586;29;20063;-41
2021/12/02 08:13:59;;;;;;;6.15;5.25;;;18.30;54.70;;;;;;4945385;29;20070;-42
2021/12/02 08:16:25;;;;;;;4.65;3.60;;;18.40;54.90;;;;;;4946586;29;20389;-42
2021/12/02 08:18:51;;;;;;;6.03;5.00;;;18.50;54.80;;;;;;4946467;29;20036;-41
2021/12/02 08:21:19;;;;;;;4.88;4.38;;;18.50;54.80;;;;;;4946653;29;20066;-41
2021/12/02 08:23:45;;;;;;;6.95;4.63;;;18.40;54.70;;;;;;4946108;29;20051;-42
2021/12/02 08:26:13;;;;;;;5.55;4.78;;;18.40;54.80;;;;;;4942579;29;20438;-41
2021/12/02 08:28:39;;;;;;;6.05;4.93;;;18.30;54.70;;;;;;4927373;29;20036;-41
2021/12/02 08:31:05;;;;;;;5.57;4.80;;;18.30;54.80;;;;;;4927403;29;20033;-41
2021/12/02 08:33:32;;;;;;;5.20;4.70;;;18.30;54.80;;;;;;4927499;29;20698;-41
2021/12/02 08:35:58;;;;;;;7.15;5.28;;;18.40;54.90;;;;;;4933175;29;20028;-42
2021/12/02 08:38:30;;;;;;;6.95;5.22;;;18.50;55.40;;;;;;4946163;29;20039;-41
2021/12/02 08:40:58;;;;;;;6.07;4.97;;;18.50;54.80;;;;;;4942992;29;20036;-42
2021/12/02 08:43:24;;;;;;;5.60;4.93;;;18.40;54.70;;;;;;4945637;29;20063;-41
2021/12/02 08:45:50;;;;;;;5.85;4.93;;;18.40;54.80;;;;;;4946035;29;20050;-41
2021/12/02 08:48:16;;;;;;;7.10;5.88;;;18.30;54.80;;;;;;4945849;29;20020;-41
2021/12/02 08:50:44;;;;;;;7.18;5.65;;;18.30;54.80;;;;;;4926993;29;20036;-41
2021/12/02 08:53:11;;;;;;;6.10;5.38;;;18.30;54.80;;;;;;4925546;29;20035;-40
2021/12/02 08:55:38;;;;;;;7.15;6.10;;;18.40;54.90;;;;;;4926877;29;20832;-40
2021/12/02 08:58:06;;;;;;;6.43;5.67;;;18.50;54.90;;;;;;4942255;29;20032;-39
2021/12/02 09:00:34;;;;;;;7.32;5.80;;;18.50;54.80;;;;;;4945621;29;20052;-41
2021/12/02 09:03:00;;;;;;;6.68;5.70;;;18.40;54.70;;;;;;4945774;29;20473;-42
2021/12/02 09:05:26;;;;;;;7.47;6.05;;;18.40;54.80;;;;;;4945360;29;20035;-41
2021/12/02 09:07:53;;;;;;;6.75;5.63;;;18.30;54.80;;;;;;4945649;29;20050;-42
2021/12/02 09:10:22;;;;;;;6.25;5.55;;;18.20;54.80;;;;;;4945470;29;20048;-41
2021/12/02 09:12:49;;;;;;;6.35;5.72;;;18.30;54.80;;;;;;4945270;29;20045;-39
2021/12/02 09:15:15;;;;;;;7.15;5.95;;;18.40;54.90;;;;;;4945466;29;20031;-41
2021/12/02 09:17:41;;;;;;;7.10;5.80;;;18.40;54.80;;;;;;4945611;29;20031;-42
2021/12/02 09:20:09;;;;;;;6.13;5.40;;;18.50;54.80;;;;;;4945504;29;20024;-41
2021/12/02 09:22:35;;;;;;;6.45;5.80;;;18.40;54.70;;;;;;4945153;29;20059;-43
2021/12/02 09:25:02;;;;;;;5.32;4.82;;;18.40;54.80;;;;;;4945359;29;20046;-42
2021/12/02 09:27:28;;;;;;;6.80;5.68;;;18.30;54.70;;;;;;4945258;29;20032;-43
2021/12/02 09:29:54;;;;;;;6.53;5.75;;;18.30;54.80;;;;;;4945381;29;20067;-41
2021/12/02 09:32:20;;;;;;;6.03;5.43;;;18.40;54.90;;;;;;4945346;29;20024;-41
2021/12/02 09:34:47;;;;;;;6.50;5.38;;;18.40;54.90;;;;;;4945227;29;20023;-42
2021/12/02 09:37:13;;;;;;;6.88;5.68;;;18.40;54.70;;;;;;4937401;29;20043;-41
2021/12/02 09:39:40;;;;;;;7.70;5.50;;;18.40;54.70;;;;;;4926089;29;20032;-41
2021/12/02 09:42:10;;;;;;;6.60;5.57;;;18.40;54.80;;;;;;4938607;29;20028;-41
2021/12/02 09:44:36;;;;;;;7.95;5.90;;;18.30;54.80;;;;;;4944952;29;20111;-41
2021/12/02 09:47:03;;;;;;;6.47;5.50;;;18.20;54.80;;;;;;4945067;29;20524;-41
2021/12/02 09:49:30;;;;;;;7.67;5.70;;;18.30;54.80;;;;;;4945237;29;20036;-41
2021/12/02 09:52:01;;;;;;;6.15;5.55;;;18.30;54.80;;;;;;4945107;29;20059;-41
2021/12/02 09:56:57;;;;;;;6.10;5.50;;;18.50;54.80;;;;;;4937817;29;20091;-41
2021/12/02 09:59:28;;;;;;;6.97;5.75;;;18.50;54.70;;;;;;4944882;29;20039;-41
2021/12/02 10:02:00;;;;;;;5.75;5.20;;;18.40;54.70;;;;;;4944992;29;20036;-42
2021/12/02 10:04:27;;;;;;;5.90;5.30;;;18.30;54.70;;;;;;4944718;29;20075;-41
2021/12/02 10:07:24;;;;;;;6.63;5.40;;;18.30;54.70;;;;;;4945070;29;20389;-41
2021/12/02 10:10:16;;;;;;;6.82;5.45;;;18.30;54.70;;;;;;4944787;29;20038;-41
2021/12/02 10:13:14;;;;;;;5.40;4.90;;;18.40;54.80;;;;;;4944824;29;20055;-41
2021/12/02 10:15:49;;;;;;;5.65;4.82;;;18.50;54.80;;;;;;4943434;29;20032;-42
2021/12/02 10:18:17;;;;;;;5.53;4.93;;;18.50;54.80;;;;;;4948816;29;20028;-41
2021/12/02 10:20:46;;;;;;;5.60;4.90;;;18.40;54.70;;;;;;4948570;29;20784;-41
2021/12/02 10:23:19;;;;;;;5.70;5.10;;;18.30;54.70;;;;;;4947408;29;20052;-41
2021/12/02 10:25:55;;;;;;;5.45;4.85;;;18.30;54.80;;;;;;4948205;29;20509;-41
2021/12/02 10:28:21;;;;;;;7.88;5.82;;;18.20;54.70;;;;;;4948709;29;20102;-41
2021/12/02 10:30:52;;;;;;;6.45;5.15;;;18.30;54.80;;;;;;4948677;29;20040;-43
2021/12/02 10:33:32;;;;;;;6.35;5.55;;;18.40;54.90;;;;;;4948729;29;20087;-41
2021/12/02 10:35:59;;;;;;;5.85;5.25;;;18.40;54.80;;;;;;4947913;29;20030;-41
2021/12/02 10:38:51;;;;;;;7.68;5.95;;;18.40;54.70;;;;;;4931529;29;20035;-43
2021/12/02 10:41:23;;;;;;;6.72;5.40;;;18.30;54.70;;;;;;4939271;29;20043;-41
2021/12/02 10:44:17;;;;;;;7.28;5.35;;;18.30;54.80;;;;;;4932497;29;20172;-41
2021/12/02 10:47:13;;;;;;;6.82;5.85;;;18.20;54.80;;;;;;4948372;29;20043;-42
2021/12/02 10:49:41;;;;;;;7.28;6.30;;;18.30;54.80;;;;;;4869937;29;20065;-41
2021/12/02 10:52:10;;;;;;;6.93;5.88;;;18.30;54.80;;;;;;4870385;29;20067;-41
2021/12/02 10:54:37;;;;;;;7.65;6.38;;;18.40;54.90;;;;;;4870246;29;20038;-44
2021/12/02 10:57:18;;;;;;;7.63;5.95;;;18.40;54.80;;;;;;4869680;29;20033;-41
2021/12/02 10:59:50;;;;;;;7.65;6.03;;;18.40;54.70;;;;;;4869929;29;20042;-41
2021/12/02 11:02:19;;;;;;;6.40;5.75;;;18.30;54.70;;;;;;4870321;29;20037;-41
2021/12/02 11:04:47;;;;;;;7.72;6.30;;;18.30;54.80;;;;;;4870043;29;20045;-41
2021/12/02 11:07:28;;;;;;;7.15;5.82;;;18.20;54.70;;;;;;4869830;29;20074;-41
2021/12/02 11:09:55;;;;;;;7.40;6.07;;;18.30;54.70;;;;;;4869538;29;20029;-41
2021/12/02 11:12:31;;;;;;;5.68;4.90;;;18.40;54.80;;;;;;4869777;29;20078;-42
2021/12/02 11:15:01;;;;;;;7.97;5.80;;;18.40;54.70;;;;;;4869995;29;20058;-41
2021/12/02 11:17:33;;;;;;;6.15;5.55;;;18.40;54.70;;;;;;4869806;29;20038;-41
2021/12/02 11:20:01;;;;;;;6.72;5.65;;;18.30;54.70;;;;;;4869750;29;20149;-41
2021/12/02 11:22:29;;;;;;;6.80;5.15;;;18.30;54.70;;;;;;4869711;29;20058;-40
2021/12/02 11:24:55;;;;;;;5.88;5.07;;;18.20;54.70;;;;;;4871842;29;20041;-41
2021/12/02 11:27:54;;;;;;;6.53;5.47;;;18.30;54.70;;;;;;4946506;29;20040;-40
2021/12/02 11:30:24;;;;;;;5.97;5.25;;;18.30;54.80;;;;;;4925813;29;20040;-41
2021/12/02 11:32:52;;;;;;;6.50;5.35;;;18.40;54.70;;;;;;4925937;29;20021;-41
2021/12/02 11:35:18;;;;;;;5.25;4.75;;;18.40;54.80;;;;;;4925740;29;20104;-39
2021/12/02 11:37:47;;;;;;;5.75;4.97;;;18.30;54.60;;;;;;4913812;29;20065;-40
2021/12/02 11:40:16;;;;;;;5.47;4.88;;;18.30;54.70;;;;;;4906922;29;20597;-40
2021/12/02 11:42:42;;;;;;;6.05;5.00;;;18.20;54.80;;;;;;4923840;29;20044;-41
2021/12/02 11:45:10;;;;;;;5.72;4.85;;;18.30;54.80;;;;;;4925594;29;20075;-41
2021/12/02 11:47:36;;;;;;;;;;;18.30;54.80;;;;;;4925781;29;20037;-41
2021/12/02 11:50:04;;;;;;;6.63;4.57;;;18.40;54.80;;;;;;4925366;29;19918;-40
2021/12/02 11:52:30;;;;;;;5.32;4.80;;;18.40;54.70;;;;;;4925678;29;20087;-41
2021/12/02 11:54:59;;;;;;;5.55;4.40;;;18.40;54.70;;;;;;4909927;29;20105;-40
2021/12/02 11:57:26;;;;;;;5.80;4.72;;;18.30;54.80;;;;;;4924620;29;20052;-41
2021/12/02 11:59:52;;;;;;;5.82;5.15;;;18.20;54.80;;;;;;4909344;29;20036;-41
2021/12/02 12:02:18;;;;;;;5.15;4.65;;;18.20;54.80;;;;;;4925413;29;20029;-41
2021/12/02 12:04:59;;;;;;;5.53;4.78;;;18.30;54.80;;;;;;4909730;29;20632;-41
2021/12/02 12:07:28;;;;;;;5.45;4.55;;;18.40;54.90;;;;;;4941974;29;20040;-41
2021/12/02 12:10:16;;;;;;;5.03;4.20;;;18.40;54.70;;;;;;4945494;29;20036;-41
2021/12/02 12:12:43;;;;;;;5.68;4.15;;;18.40;54.70;;;;;;4929337;29;20124;-42
2021/12/02 12:15:48;;;;;;;5.65;4.55;;;18.30;54.70;;;;;;4927739;29;20040;-41
2021/12/02 12:18:28;;;;;;;6.60;4.65;;;18.20;54.70;;;;;;4917230;29;20039;-40
2021/12/02 12:21:04;;;;;;;5.25;4.75;;;18.20;54.80;;;;;;4946533;29;20039;-40
2021/12/02 12:23:47;;;;;;;6.45;4.78;;;18.30;54.80;;;;;;4945233;29;20620;-40
2021/12/02 12:26:31;;;;;;;5.40;4.82;;;18.40;54.80;;;;;;4942863;29;20040;-42
2021/12/02 12:29:07;;;;;;;5.95;4.68;;;18.40;54.70;;;;;;4926207;29;20103;-41
2021/12/02 12:32:01;;;;;;;4.95;4.40;;;18.40;54.60;;;;;;4929721;29;20064;-41
2021/12/02 12:34:43;;;;;;;5.65;4.88;;;18.40;54.60;;;;;;4927514;29;20064;-41
2021/12/02 12:37:21;;;;;;;5.15;4.65;;;18.30;54.70;;;;;;4934539;29;20509;-41
2021/12/02 12:40:06;;;;;;;;;;;18.20;54.70;;;;;;4946178;29;20044;-40
2021/12/02 12:42:32;;;;;;;5.13;4.30;;;18.20;54.60;;;;;;4930482;29;19959;-40
2021/12/02 12:44:59;;;;;;;4.80;4.30;;;18.30;54.70;;;;;;4927238;29;20048;-40
2021/12/02 12:47:45;;;;;;;4.85;4.35;;;18.40;54.70;;;;;;4926996;29;20092;-40
2021/12/02 12:50:42;;;;;;;5.22;4.25;;;18.40;54.60;;;;;;4942008;29;20048;-40
2021/12/02 12:53:17;;;;;;;5.00;4.22;;;18.30;54.60;;;;;;4945622;29;20043;-40
2021/12/02 12:56:03;;;;;;;4.93;4.43;;;18.30;54.60;;;;;;4945709;29;20062;-40
2021/12/02 12:58:40;;;;;;;5.80;4.15;;;18.20;54.70;;;;;;4927061;29;20078;-40
2021/12/02 13:01:20;;;;;;;4.50;3.90;;;18.30;54.70;;;;;;4925355;29;20055;-40
2021/12/02 13:04:16;;;;;;;4.55;4.00;;;18.40;54.70;;;;;;4925586;29;20043;-41
2021/12/02 13:06:49;;;;;;;5.47;4.13;;;18.40;54.60;;;;;;4930772;29;20464;-41
2021/12/02 13:09:55;;;;;;;3.85;3.53;;;18.40;54.60;;;;;;4945603;29;20034;-40
2021/12/02 13:12:46;;;;;;;4.60;3.90;;;18.30;54.60;;;;;;4931161;29;20043;-40
2021/12/02 13:15:14;;;;;;;4.68;4.00;;;18.20;54.70;;;;;;4925781;29;20096;-40
2021/12/02 13:17:43;;;;;;;5.35;4.13;;;18.30;54.70;;;;;;4928677;29;20028;-41
2021/12/02 13:20:22;;;;;;;5.13;4.18;;;18.40;54.70;;;;;;4945350;29;20110;-40